sensor_id;sensor_type;location;lat;lon;timestamp;P1;durP1;ratioP1;P2;durP2;ratioP2
4323;SDS011;2175;51.018;6.994;2023-03-15T00:00:45;15.50;;;5.38;;
4323;SDS011;2175;51.018;6.994;2023-03-15T00:03:12;18.95;;;5.47;;
4323;SDS011;2175;51.018;6.994;2023-03-15T00:05:41;19.20;;;5.50;;
4323;SDS011;2175;51.018;6.994;2023-03-15T00:08:11;18.42;;;6.20;;
4323;SDS011;2175;51.018;6.994;2023-03-15T00:10:41;25.47;;;5.83;;
4323;SDS011;2175;51.018;6.994;2023-03-15T00:13:08;18.92;;;5.80;;
4323;SDS011;2175;51.018;6.994;2023-03-15T00:15:34;20.87;;;6.30;;
4323;SDS011;2175;51.018;6.994;2023-03-15T00:18:00;25.10;;;6.27;;
4323;SDS011;2175;51.018;6.994;2023-03-15T00:20:27;23.73;;;5.33;;
4323;SDS011;2175;51.018;6.994;2023-03-15T00:22:56;19.37;;;6.20;;
4323;SDS011;2175;51.018;6.994;2023-03-15T00:25:21;18.20;;;6.00;;
4323;SDS011;2175;51.018;6.994;2023-03-15T00:27:47;11.70;;;5.43;;
4323;SDS011;2175;51.018;6.994;2023-03-15T00:30:12;20.67;;;5.60;;
4323;SDS011;2175;51.018;6.994;2023-03-15T00:32:38;17.17;;;5.17;;
4323;SDS011;2175;51.018;6.994;2023-03-15T00:35:04;14.52;;;5.43;;
4323;SDS011;2175;51.018;6.994;2023-03-15T00:37:30;16.40;;;5.73;;
4323;SDS011;2175;51.018;6.994;2023-03-15T00:39:56;22.33;;;5.80;;
4323;SDS011;2175;51.018;6.994;2023-03-15T00:42:22;17.60;;;5.27;;
4323;SDS011;2175;51.018;6.994;2023-03-15T00:44:51;14.20;;;6.17;;
4323;SDS011;2175;51.018;6.994;2023-03-15T00:47:17;18.87;;;5.80;;
4323;SDS011;2175;51.018;6.994;2023-03-15T00:49:42;19.33;;;6.00;;
4323;SDS011;2175;51.018;6.994;2023-03-15T00:52:09;20.80;;;6.33;;
4323;SDS011;2175;51.018;6.994;2023-03-15T00:54:40;25.90;;;6.80;;
4323;SDS011;2175;51.018;6.994;2023-03-15T00:57:06;19.33;;;6.45;;
4323;SDS011;2175;51.018;6.994;2023-03-15T00:59:31;15.23;;;6.40;;
4323;SDS011;2175;51.018;6.994;2023-03-15T01:02:02;24.67;;;6.67;;
4323;SDS011;2175;51.018;6.994;2023-03-15T01:04:29;20.60;;;6.97;;
4323;SDS011;2175;51.018;6.994;2023-03-15T01:06:55;20.23;;;7.17;;
4323;SDS011;2175;51.018;6.994;2023-03-15T01:09:21;17.98;;;7.70;;
4323;SDS011;2175;51.018;6.994;2023-03-15T01:11:47;21.40;;;6.97;;
4323;SDS011;2175;51.018;6.994;2023-03-15T01:14:13;27.77;;;8.27;;
4323;SDS011;2175;51.018;6.994;2023-03-15T01:16:38;20.10;;;6.93;;
4323;SDS011;2175;51.018;6.994;2023-03-15T01:19:04;31.53;;;7.73;;
4323;SDS011;2175;51.018;6.994;2023-03-15T01:21:30;23.53;;;8.10;;
4323;SDS011;2175;51.018;6.994;2023-03-15T01:23:55;21.40;;;8.83;;
4323;SDS011;2175;51.018;6.994;2023-03-15T01:26:21;17.07;;;8.13;;
4323;SDS011;2175;51.018;6.994;2023-03-15T01:28:46;23.93;;;9.13;;
4323;SDS011;2175;51.018;6.994;2023-03-15T01:31:17;22.93;;;8.93;;
4323;SDS011;2175;51.018;6.994;2023-03-15T01:33:47;19.40;;;9.20;;
4323;SDS011;2175;51.018;6.994;2023-03-15T01:36:13;20.67;;;10.20;;
4323;SDS011;2175;51.018;6.994;2023-03-15T01:38:38;19.97;;;9.87;;
4323;SDS011;2175;51.018;6.994;2023-03-15T01:41:04;24.97;;;10.27;;
4323;SDS011;2175;51.018;6.994;2023-03-15T01:43:30;17.53;;;8.87;;
4323;SDS011;2175;51.018;6.994;2023-03-15T01:48:53;31.43;;;10.43;;
4323;SDS011;2175;51.018;6.994;2023-03-15T01:54:12;22.20;;;8.20;;
4323;SDS011;2175;51.018;6.994;2023-03-15T01:56:51;21.52;;;7.65;;
4323;SDS011;2175;51.018;6.994;2023-03-15T01:59:28;19.07;;;6.70;;
4323;SDS011;2175;51.018;6.994;2023-03-15T02:01:57;11.83;;;6.03;;
4323;SDS011;2175;51.018;6.994;2023-03-15T02:04:32;10.52;;;5.82;;
4323;SDS011;2175;51.018;6.994;2023-03-15T02:07:01;11.53;;;6.17;;
4323;SDS011;2175;51.018;6.994;2023-03-15T02:09:34;8.57;;;5.50;;
4323;SDS011;2175;51.018;6.994;2023-03-15T02:12:10;12.93;;;6.30;;
4323;SDS011;2175;51.018;6.994;2023-03-15T02:14:36;11.73;;;5.43;;
4323;SDS011;2175;51.018;6.994;2023-03-15T02:17:02;7.50;;;5.47;;
4323;SDS011;2175;51.018;6.994;2023-03-15T02:22:09;12.10;;;4.70;;
4323;SDS011;2175;51.018;6.994;2023-03-15T02:24:48;9.70;;;5.03;;
4323;SDS011;2175;51.018;6.994;2023-03-15T02:27:27;10.53;;;5.33;;
4323;SDS011;2175;51.018;6.994;2023-03-15T02:29:55;12.18;;;4.72;;
4323;SDS011;2175;51.018;6.994;2023-03-15T02:32:21;12.17;;;5.33;;
4323;SDS011;2175;51.018;6.994;2023-03-15T02:34:46;10.83;;;6.37;;
4323;SDS011;2175;51.018;6.994;2023-03-15T02:37:12;9.90;;;5.50;;
4323;SDS011;2175;51.018;6.994;2023-03-15T02:39:37;10.27;;;5.27;;
4323;SDS011;2175;51.018;6.994;2023-03-15T02:42:03;7.50;;;4.90;;
4323;SDS011;2175;51.018;6.994;2023-03-15T02:44:33;8.85;;;4.85;;
4323;SDS011;2175;51.018;6.994;2023-03-15T02:47:03;11.73;;;5.13;;
4323;SDS011;2175;51.018;6.994;2023-03-15T02:49:36;9.32;;;4.40;;
4323;SDS011;2175;51.018;6.994;2023-03-15T02:52:11;8.68;;;4.95;;
4323;SDS011;2175;51.018;6.994;2023-03-15T02:54:37;8.50;;;4.28;;
4323;SDS011;2175;51.018;6.994;2023-03-15T02:57:07;9.50;;;5.07;;
4323;SDS011;2175;51.018;6.994;2023-03-15T02:59:33;7.45;;;4.80;;
4323;SDS011;2175;51.018;6.994;2023-03-15T03:01:59;6.63;;;4.10;;
4323;SDS011;2175;51.018;6.994;2023-03-15T03:04:25;16.67;;;4.57;;
4323;SDS011;2175;51.018;6.994;2023-03-15T03:06:50;7.93;;;4.53;;
4323;SDS011;2175;51.018;6.994;2023-03-15T03:09:16;4.97;;;3.30;;
4323;SDS011;2175;51.018;6.994;2023-03-15T03:11:41;7.37;;;3.67;;
4323;SDS011;2175;51.018;6.994;2023-03-15T03:14:07;8.23;;;3.95;;
4323;SDS011;2175;51.018;6.994;2023-03-15T03:16:33;4.73;;;3.27;;
4323;SDS011;2175;51.018;6.994;2023-03-15T03:18:59;5.43;;;3.50;;
4323;SDS011;2175;51.018;6.994;2023-03-15T03:21:25;5.18;;;3.45;;
4323;SDS011;2175;51.018;6.994;2023-03-15T03:23:51;6.30;;;3.50;;
4323;SDS011;2175;51.018;6.994;2023-03-15T03:26:18;5.75;;;3.58;;
4323;SDS011;2175;51.018;6.994;2023-03-15T03:28:45;4.00;;;3.07;;
4323;SDS011;2175;51.018;6.994;2023-03-15T03:31:15;10.32;;;3.60;;
4323;SDS011;2175;51.018;6.994;2023-03-15T03:33:46;4.45;;;3.40;;
4323;SDS011;2175;51.018;6.994;2023-03-15T03:36:11;5.03;;;3.77;;
4323;SDS011;2175;51.018;6.994;2023-03-15T03:38:41;5.68;;;4.22;;
4323;SDS011;2175;51.018;6.994;2023-03-15T03:41:08;7.72;;;3.60;;
4323;SDS011;2175;51.018;6.994;2023-03-15T03:43:35;4.75;;;3.75;;
4323;SDS011;2175;51.018;6.994;2023-03-15T03:46:01;7.82;;;5.10;;
4323;SDS011;2175;51.018;6.994;2023-03-15T03:48:27;6.00;;;4.88;;
4323;SDS011;2175;51.018;6.994;2023-03-15T03:50:53;6.57;;;4.13;;
4323;SDS011;2175;51.018;6.994;2023-03-15T03:53:19;7.07;;;5.20;;
4323;SDS011;2175;51.018;6.994;2023-03-15T03:55:45;7.37;;;4.70;;
4323;SDS011;2175;51.018;6.994;2023-03-15T03:58:11;8.07;;;5.10;;
4323;SDS011;2175;51.018;6.994;2023-03-15T04:00:36;8.37;;;5.63;;
4323;SDS011;2175;51.018;6.994;2023-03-15T04:03:02;8.82;;;5.90;;
4323;SDS011;2175;51.018;6.994;2023-03-15T04:05:28;8.00;;;5.53;;
4323;SDS011;2175;51.018;6.994;2023-03-15T04:07:54;6.97;;;5.67;;
4323;SDS011;2175;51.018;6.994;2023-03-15T04:10:19;9.37;;;5.73;;
4323;SDS011;2175;51.018;6.994;2023-03-15T04:12:51;10.35;;;5.70;;
4323;SDS011;2175;51.018;6.994;2023-03-15T04:15:18;9.50;;;6.28;;
4323;SDS011;2175;51.018;6.994;2023-03-15T04:17:46;7.03;;;5.45;;
4323;SDS011;2175;51.018;6.994;2023-03-15T04:20:13;7.75;;;6.07;;
4323;SDS011;2175;51.018;6.994;2023-03-15T04:22:39;8.00;;;5.47;;
4323;SDS011;2175;51.018;6.994;2023-03-15T04:25:05;8.07;;;6.30;;
4323;SDS011;2175;51.018;6.994;2023-03-15T04:27:31;10.05;;;5.60;;
4323;SDS011;2175;51.018;6.994;2023-03-15T04:29:56;9.00;;;6.73;;
4323;SDS011;2175;51.018;6.994;2023-03-15T04:32:22;8.30;;;6.70;;
4323;SDS011;2175;51.018;6.994;2023-03-15T04:34:48;10.53;;;7.33;;
4323;SDS011;2175;51.018;6.994;2023-03-15T04:37:15;8.07;;;6.50;;
4323;SDS011;2175;51.018;6.994;2023-03-15T04:39:42;9.60;;;7.45;;
4323;SDS011;2175;51.018;6.994;2023-03-15T04:42:08;10.93;;;8.73;;
4323;SDS011;2175;51.018;6.994;2023-03-15T04:44:34;11.47;;;8.60;;
4323;SDS011;2175;51.018;6.994;2023-03-15T04:46:59;11.80;;;8.50;;
4323;SDS011;2175;51.018;6.994;2023-03-15T04:49:25;11.23;;;9.53;;
4323;SDS011;2175;51.018;6.994;2023-03-15T04:51:50;12.33;;;9.60;;
4323;SDS011;2175;51.018;6.994;2023-03-15T04:54:16;12.40;;;8.67;;
4323;SDS011;2175;51.018;6.994;2023-03-15T04:56:42;10.87;;;9.27;;
4323;SDS011;2175;51.018;6.994;2023-03-15T04:59:07;10.17;;;8.13;;
4323;SDS011;2175;51.018;6.994;2023-03-15T05:01:34;8.70;;;7.47;;
4323;SDS011;2175;51.018;6.994;2023-03-15T05:04:01;12.65;;;8.80;;
4323;SDS011;2175;51.018;6.994;2023-03-15T05:06:27;10.20;;;7.77;;
4323;SDS011;2175;51.018;6.994;2023-03-15T05:08:53;16.23;;;13.20;;
4323;SDS011;2175;51.018;6.994;2023-03-15T05:11:19;28.13;;;22.47;;
4323;SDS011;2175;51.018;6.994;2023-03-15T05:13:44;24.83;;;20.80;;
4323;SDS011;2175;51.018;6.994;2023-03-15T05:16:10;28.30;;;20.20;;
4323;SDS011;2175;51.018;6.994;2023-03-15T05:18:36;22.83;;;19.37;;
4323;SDS011;2175;51.018;6.994;2023-03-15T05:21:01;32.90;;;27.77;;
4323;SDS011;2175;51.018;6.994;2023-03-15T05:23:30;23.50;;;20.65;;
4323;SDS011;2175;51.018;6.994;2023-03-15T05:25:57;29.67;;;24.40;;
4323;SDS011;2175;51.018;6.994;2023-03-15T05:28:24;26.33;;;21.05;;
4323;SDS011;2175;51.018;6.994;2023-03-15T05:30:50;30.00;;;24.42;;
4323;SDS011;2175;51.018;6.994;2023-03-15T05:33:16;25.63;;;20.73;;
4323;SDS011;2175;51.018;6.994;2023-03-15T05:35:42;31.10;;;25.57;;
4323;SDS011;2175;51.018;6.994;2023-03-15T05:38:09;24.13;;;20.88;;
4323;SDS011;2175;51.018;6.994;2023-03-15T05:40:39;15.50;;;12.05;;
4323;SDS011;2175;51.018;6.994;2023-03-15T05:43:08;15.75;;;12.73;;
4323;SDS011;2175;51.018;6.994;2023-03-15T05:45:35;24.27;;;20.90;;
4323;SDS011;2175;51.018;6.994;2023-03-15T05:48:01;25.40;;;19.85;;
4323;SDS011;2175;51.018;6.994;2023-03-15T05:50:27;23.27;;;19.88;;
4323;SDS011;2175;51.018;6.994;2023-03-15T05:52:53;24.73;;;16.90;;
4323;SDS011;2175;51.018;6.994;2023-03-15T05:55:19;18.98;;;14.45;;
4323;SDS011;2175;51.018;6.994;2023-03-15T05:57:45;19.33;;;15.17;;
4323;SDS011;2175;51.018;6.994;2023-03-15T06:00:11;22.40;;;15.60;;
4323;SDS011;2175;51.018;6.994;2023-03-15T06:02:39;18.40;;;13.27;;
4323;SDS011;2175;51.018;6.994;2023-03-15T06:05:05;15.93;;;13.25;;
4323;SDS011;2175;51.018;6.994;2023-03-15T06:07:31;18.83;;;11.37;;
4323;SDS011;2175;51.018;6.994;2023-03-15T06:09:57;15.87;;;11.93;;
4323;SDS011;2175;51.018;6.994;2023-03-15T06:12:22;17.87;;;12.87;;
4323;SDS011;2175;51.018;6.994;2023-03-15T06:14:48;14.57;;;11.53;;
4323;SDS011;2175;51.018;6.994;2023-03-15T06:17:13;21.53;;;15.40;;
4323;SDS011;2175;51.018;6.994;2023-03-15T06:19:41;18.48;;;13.00;;
4323;SDS011;2175;51.018;6.994;2023-03-15T06:22:06;18.10;;;12.93;;
4323;SDS011;2175;51.018;6.994;2023-03-15T06:24:32;19.77;;;14.37;;
4323;SDS011;2175;51.018;6.994;2023-03-15T06:26:58;18.73;;;13.00;;
4323;SDS011;2175;51.018;6.994;2023-03-15T06:29:23;16.47;;;12.33;;
4323;SDS011;2175;51.018;6.994;2023-03-15T06:31:49;24.83;;;13.30;;
4323;SDS011;2175;51.018;6.994;2023-03-15T06:34:15;18.20;;;13.17;;
4323;SDS011;2175;51.018;6.994;2023-03-15T06:36:41;18.10;;;11.90;;
4323;SDS011;2175;51.018;6.994;2023-03-15T06:39:07;17.90;;;13.70;;
4323;SDS011;2175;51.018;6.994;2023-03-15T06:41:35;18.60;;;12.70;;
4323;SDS011;2175;51.018;6.994;2023-03-15T06:44:01;20.87;;;14.83;;
4323;SDS011;2175;51.018;6.994;2023-03-15T06:46:26;22.23;;;13.67;;
4323;SDS011;2175;51.018;6.994;2023-03-15T06:48:52;19.37;;;12.03;;
4323;SDS011;2175;51.018;6.994;2023-03-15T06:51:18;20.80;;;13.90;;
4323;SDS011;2175;51.018;6.994;2023-03-15T06:53:43;17.47;;;13.03;;
4323;SDS011;2175;51.018;6.994;2023-03-15T06:56:09;18.63;;;14.20;;
4323;SDS011;2175;51.018;6.994;2023-03-15T06:58:35;13.80;;;11.20;;
4323;SDS011;2175;51.018;6.994;2023-03-15T07:01:01;14.80;;;10.53;;
4323;SDS011;2175;51.018;6.994;2023-03-15T07:03:26;16.20;;;10.90;;
4323;SDS011;2175;51.018;6.994;2023-03-15T07:05:52;17.10;;;12.50;;
4323;SDS011;2175;51.018;6.994;2023-03-15T07:08:22;17.27;;;12.77;;
4323;SDS011;2175;51.018;6.994;2023-03-15T07:10:49;14.20;;;11.57;;
4323;SDS011;2175;51.018;6.994;2023-03-15T07:13:16;19.03;;;13.70;;
4323;SDS011;2175;51.018;6.994;2023-03-15T07:15:42;22.90;;;15.70;;
4323;SDS011;2175;51.018;6.994;2023-03-15T07:18:07;21.73;;;16.07;;
4323;SDS011;2175;51.018;6.994;2023-03-15T07:20:33;18.77;;;15.40;;
4323;SDS011;2175;51.018;6.994;2023-03-15T07:22:58;18.60;;;15.43;;
4323;SDS011;2175;51.018;6.994;2023-03-15T07:25:24;22.37;;;16.57;;
4323;SDS011;2175;51.018;6.994;2023-03-15T07:27:50;22.53;;;14.83;;
4323;SDS011;2175;51.018;6.994;2023-03-15T07:30:17;21.70;;;17.20;;
4323;SDS011;2175;51.018;6.994;2023-03-15T07:32:43;23.43;;;18.23;;
4323;SDS011;2175;51.018;6.994;2023-03-15T07:35:09;25.90;;;18.40;;
4323;SDS011;2175;51.018;6.994;2023-03-15T07:37:35;27.90;;;17.60;;
4323;SDS011;2175;51.018;6.994;2023-03-15T07:40:01;24.40;;;17.77;;
4323;SDS011;2175;51.018;6.994;2023-03-15T07:42:33;19.52;;;15.55;;
4323;SDS011;2175;51.018;6.994;2023-03-15T07:45:02;22.27;;;16.77;;
4323;SDS011;2175;51.018;6.994;2023-03-15T07:47:29;29.67;;;17.93;;
4323;SDS011;2175;51.018;6.994;2023-03-15T07:49:55;24.08;;;18.63;;
4323;SDS011;2175;51.018;6.994;2023-03-15T07:52:21;27.77;;;20.60;;
4323;SDS011;2175;51.018;6.994;2023-03-15T07:54:47;24.48;;;18.05;;
4323;SDS011;2175;51.018;6.994;2023-03-15T07:57:13;26.00;;;17.87;;
4323;SDS011;2175;51.018;6.994;2023-03-15T07:59:38;25.30;;;18.87;;
4323;SDS011;2175;51.018;6.994;2023-03-15T08:02:04;25.60;;;19.00;;
4323;SDS011;2175;51.018;6.994;2023-03-15T08:04:30;26.67;;;18.40;;
4323;SDS011;2175;51.018;6.994;2023-03-15T08:06:56;25.03;;;17.30;;
4323;SDS011;2175;51.018;6.994;2023-03-15T08:09:21;22.37;;;16.13;;
4323;SDS011;2175;51.018;6.994;2023-03-15T08:11:47;22.23;;;15.73;;
4323;SDS011;2175;51.018;6.994;2023-03-15T08:14:13;25.27;;;18.00;;
4323;SDS011;2175;51.018;6.994;2023-03-15T08:16:39;22.57;;;16.50;;
4323;SDS011;2175;51.018;6.994;2023-03-15T08:19:04;25.03;;;18.00;;
4323;SDS011;2175;51.018;6.994;2023-03-15T08:21:30;29.30;;;17.03;;
4323;SDS011;2175;51.018;6.994;2023-03-15T08:23:57;22.00;;;15.93;;
4323;SDS011;2175;51.018;6.994;2023-03-15T08:26:23;20.50;;;14.80;;
4323;SDS011;2175;51.018;6.994;2023-03-15T08:28:49;24.70;;;16.87;;
4323;SDS011;2175;51.018;6.994;2023-03-15T08:31:15;24.57;;;15.40;;
4323;SDS011;2175;51.018;6.994;2023-03-15T08:33:41;21.10;;;15.10;;
4323;SDS011;2175;51.018;6.994;2023-03-15T08:36:07;19.10;;;14.50;;
4323;SDS011;2175;51.018;6.994;2023-03-15T08:38:33;22.33;;;14.33;;
4323;SDS011;2175;51.018;6.994;2023-03-15T08:40:58;22.43;;;15.73;;
4323;SDS011;2175;51.018;6.994;2023-03-15T08:43:24;23.53;;;15.60;;
4323;SDS011;2175;51.018;6.994;2023-03-15T08:45:50;31.23;;;15.70;;
4323;SDS011;2175;51.018;6.994;2023-03-15T08:48:16;16.63;;;12.50;;
4323;SDS011;2175;51.018;6.994;2023-03-15T08:50:42;23.30;;;13.70;;
4323;SDS011;2175;51.018;6.994;2023-03-15T08:53:08;16.80;;;11.73;;
4323;SDS011;2175;51.018;6.994;2023-03-15T08:55:35;14.40;;;11.00;;
4323;SDS011;2175;51.018;6.994;2023-03-15T08:58:01;17.20;;;11.70;;
4323;SDS011;2175;51.018;6.994;2023-03-15T09:00:28;18.87;;;13.50;;
4323;SDS011;2175;51.018;6.994;2023-03-15T09:02:54;19.53;;;12.27;;
4323;SDS011;2175;51.018;6.994;2023-03-15T09:05:21;19.93;;;13.50;;
4323;SDS011;2175;51.018;6.994;2023-03-15T09:07:48;20.53;;;14.37;;
4323;SDS011;2175;51.018;6.994;2023-03-15T09:10:14;22.53;;;13.40;;
4323;SDS011;2175;51.018;6.994;2023-03-15T09:12:41;20.00;;;11.70;;
4323;SDS011;2175;51.018;6.994;2023-03-15T09:15:08;15.37;;;10.47;;
4323;SDS011;2175;51.018;6.994;2023-03-15T09:17:35;16.87;;;11.80;;
4323;SDS011;2175;51.018;6.994;2023-03-15T09:20:06;13.40;;;9.80;;
4323;SDS011;2175;51.018;6.994;2023-03-15T09:22:38;12.87;;;7.00;;
4323;SDS011;2175;51.018;6.994;2023-03-15T09:25:05;12.40;;;7.70;;
4323;SDS011;2175;51.018;6.994;2023-03-15T09:27:32;12.50;;;7.57;;
4323;SDS011;2175;51.018;6.994;2023-03-15T09:29:58;17.10;;;9.87;;
4323;SDS011;2175;51.018;6.994;2023-03-15T09:32:24;16.00;;;10.20;;
4323;SDS011;2175;51.018;6.994;2023-03-15T09:34:49;13.63;;;8.90;;
4323;SDS011;2175;51.018;6.994;2023-03-15T09:37:15;19.63;;;7.83;;
4323;SDS011;2175;51.018;6.994;2023-03-15T09:39:41;16.50;;;7.90;;
4323;SDS011;2175;51.018;6.994;2023-03-15T09:42:18;14.10;;;8.37;;
4323;SDS011;2175;51.018;6.994;2023-03-15T09:44:59;15.73;;;9.60;;
4323;SDS011;2175;51.018;6.994;2023-03-15T09:52:50;11.33;;;7.90;;
4323;SDS011;2175;51.018;6.994;2023-03-15T09:55:25;13.90;;;8.90;;
4323;SDS011;2175;51.018;6.994;2023-03-15T09:57:53;15.93;;;9.63;;
4323;SDS011;2175;51.018;6.994;2023-03-15T10:00:29;16.13;;;7.60;;
4323;SDS011;2175;51.018;6.994;2023-03-15T10:03:01;9.73;;;6.50;;
4323;SDS011;2175;51.018;6.994;2023-03-15T10:05:43;12.67;;;7.07;;
4323;SDS011;2175;51.018;6.994;2023-03-15T10:08:20;18.80;;;8.57;;
4323;SDS011;2175;51.018;6.994;2023-03-15T10:10:48;11.80;;;7.37;;
4323;SDS011;2175;51.018;6.994;2023-03-15T10:21:29;10.20;;;6.00;;
4323;SDS011;2175;51.018;6.994;2023-03-15T10:27:07;9.80;;;6.40;;
4323;SDS011;2175;51.018;6.994;2023-03-15T10:29:40;11.50;;;7.10;;
4323;SDS011;2175;51.018;6.994;2023-03-15T10:32:05;9.77;;;6.00;;
4323;SDS011;2175;51.018;6.994;2023-03-15T10:34:41;20.70;;;7.13;;
4323;SDS011;2175;51.018;6.994;2023-03-15T10:37:10;8.23;;;5.30;;
4323;SDS011;2175;51.018;6.994;2023-03-15T10:39:36;12.87;;;6.43;;
4323;SDS011;2175;51.018;6.994;2023-03-15T10:42:01;12.17;;;5.80;;
4323;SDS011;2175;51.018;6.994;2023-03-15T10:44:28;14.20;;;6.00;;
4323;SDS011;2175;51.018;6.994;2023-03-15T10:47:01;8.73;;;4.63;;
4323;SDS011;2175;51.018;6.994;2023-03-15T10:49:35;11.33;;;5.37;;
4323;SDS011;2175;51.018;6.994;2023-03-15T10:52:02;12.10;;;4.77;;
4323;SDS011;2175;51.018;6.994;2023-03-15T10:54:30;10.33;;;5.10;;
4323;SDS011;2175;51.018;6.994;2023-03-15T10:57:13;11.00;;;4.90;;
4323;SDS011;2175;51.018;6.994;2023-03-15T10:59:53;11.00;;;5.20;;
4323;SDS011;2175;51.018;6.994;2023-03-15T11:02:24;10.10;;;5.67;;
4323;SDS011;2175;51.018;6.994;2023-03-15T11:05:01;15.07;;;4.87;;
4323;SDS011;2175;51.018;6.994;2023-03-15T11:07:37;10.40;;;4.63;;
4323;SDS011;2175;51.018;6.994;2023-03-15T11:10:22;8.07;;;3.67;;
4323;SDS011;2175;51.018;6.994;2023-03-15T11:12:49;6.33;;;2.73;;
4323;SDS011;2175;51.018;6.994;2023-03-15T11:15:32;9.60;;;3.87;;
4323;SDS011;2175;51.018;6.994;2023-03-15T11:17:58;11.03;;;3.70;;
4323;SDS011;2175;51.018;6.994;2023-03-15T11:20:37;8.80;;;3.63;;
4323;SDS011;2175;51.018;6.994;2023-03-15T11:23:12;11.43;;;4.17;;
4323;SDS011;2175;51.018;6.994;2023-03-15T11:25:44;11.53;;;3.70;;
4323;SDS011;2175;51.018;6.994;2023-03-15T11:28:11;6.07;;;3.57;;
4323;SDS011;2175;51.018;6.994;2023-03-15T11:30:42;13.73;;;4.10;;
4323;SDS011;2175;51.018;6.994;2023-03-15T11:33:09;9.70;;;3.70;;
4323;SDS011;2175;51.018;6.994;2023-03-15T11:35:50;8.63;;;3.00;;
4323;SDS011;2175;51.018;6.994;2023-03-15T11:38:22;7.87;;;3.33;;
4323;SDS011;2175;51.018;6.994;2023-03-15T11:41:00;5.97;;;3.30;;
4323;SDS011;2175;51.018;6.994;2023-03-15T11:43:53;7.83;;;4.20;;
4323;SDS011;2175;51.018;6.994;2023-03-15T11:46:36;10.57;;;3.20;;
4323;SDS011;2175;51.018;6.994;2023-03-15T11:49:12;11.47;;;2.90;;
4323;SDS011;2175;51.018;6.994;2023-03-15T11:51:41;10.43;;;3.63;;
4323;SDS011;2175;51.018;6.994;2023-03-15T11:54:14;9.60;;;3.30;;
4323;SDS011;2175;51.018;6.994;2023-03-15T11:59:11;8.80;;;3.10;;
4323;SDS011;2175;51.018;6.994;2023-03-15T12:07:01;8.83;;;3.17;;
4323;SDS011;2175;51.018;6.994;2023-03-15T12:09:40;6.07;;;2.70;;
4323;SDS011;2175;51.018;6.994;2023-03-15T12:18:21;11.63;;;4.00;;
4323;SDS011;2175;51.018;6.994;2023-03-15T12:20:37;7.90;;;3.40;;
4323;SDS011;2175;51.018;6.994;2023-03-15T12:25:57;4.97;;;2.60;;
4323;SDS011;2175;51.018;6.994;2023-03-15T12:28:28;10.83;;;3.17;;
4323;SDS011;2175;51.018;6.994;2023-03-15T12:31:01;7.13;;;3.50;;
4323;SDS011;2175;51.018;6.994;2023-03-15T12:33:29;11.67;;;3.63;;
4323;SDS011;2175;51.018;6.994;2023-03-15T12:35:58;6.43;;;3.10;;
4323;SDS011;2175;51.018;6.994;2023-03-15T12:38:30;8.10;;;2.90;;
4323;SDS011;2175;51.018;6.994;2023-03-15T12:41:00;9.73;;;3.23;;
4323;SDS011;2175;51.018;6.994;2023-03-15T12:43:39;6.50;;;2.97;;
4323;SDS011;2175;51.018;6.994;2023-03-15T12:46:14;9.03;;;3.10;;
4323;SDS011;2175;51.018;6.994;2023-03-15T12:54:21;9.00;;;2.80;;
4323;SDS011;2175;51.018;6.994;2023-03-15T12:56:53;5.67;;;2.53;;
4323;SDS011;2175;51.018;6.994;2023-03-15T13:01:55;8.20;;;3.07;;
4323;SDS011;2175;51.018;6.994;2023-03-15T13:04:22;7.13;;;2.70;;
4323;SDS011;2175;51.018;6.994;2023-03-15T13:15:29;10.80;;;3.10;;
4323;SDS011;2175;51.018;6.994;2023-03-15T13:18:21;7.17;;;3.50;;
4323;SDS011;2175;51.018;6.994;2023-03-15T13:20:57;8.20;;;2.87;;
4323;SDS011;2175;51.018;6.994;2023-03-15T13:23:48;6.63;;;2.40;;
4323;SDS011;2175;51.018;6.994;2023-03-15T13:26:19;14.20;;;2.80;;
4323;SDS011;2175;51.018;6.994;2023-03-15T13:29:00;11.83;;;3.17;;
4323;SDS011;2175;51.018;6.994;2023-03-15T13:31:32;9.13;;;2.50;;
4323;SDS011;2175;51.018;6.994;2023-03-15T13:34:06;5.37;;;2.50;;
4323;SDS011;2175;51.018;6.994;2023-03-15T13:36:53;10.47;;;2.50;;
4323;SDS011;2175;51.018;6.994;2023-03-15T13:39:28;9.37;;;3.03;;
4323;SDS011;2175;51.018;6.994;2023-03-15T13:41:57;8.03;;;3.10;;
4323;SDS011;2175;51.018;6.994;2023-03-15T13:44:23;8.27;;;2.67;;
4323;SDS011;2175;51.018;6.994;2023-03-15T13:46:50;8.67;;;2.90;;
4323;SDS011;2175;51.018;6.994;2023-03-15T13:49:17;6.80;;;2.47;;
4323;SDS011;2175;51.018;6.994;2023-03-15T13:51:43;6.23;;;2.57;;
4323;SDS011;2175;51.018;6.994;2023-03-15T13:54:19;6.93;;;2.37;;
4323;SDS011;2175;51.018;6.994;2023-03-15T13:57:00;6.50;;;2.40;;
4323;SDS011;2175;51.018;6.994;2023-03-15T13:59:40;5.50;;;2.40;;
4323;SDS011;2175;51.018;6.994;2023-03-15T14:02:17;10.90;;;3.03;;
4323;SDS011;2175;51.018;6.994;2023-03-15T14:04:52;5.63;;;2.40;;
4323;SDS011;2175;51.018;6.994;2023-03-15T14:07:24;5.77;;;2.30;;
4323;SDS011;2175;51.018;6.994;2023-03-15T14:12:43;5.50;;;2.50;;
4323;SDS011;2175;51.018;6.994;2023-03-15T14:15:16;8.07;;;2.40;;
4323;SDS011;2175;51.018;6.994;2023-03-15T14:17:57;8.27;;;2.50;;
4323;SDS011;2175;51.018;6.994;2023-03-15T14:20:36;4.77;;;2.37;;
4323;SDS011;2175;51.018;6.994;2023-03-15T14:23:13;6.87;;;2.20;;
4323;SDS011;2175;51.018;6.994;2023-03-15T14:25:41;7.47;;;2.40;;
4323;SDS011;2175;51.018;6.994;2023-03-15T14:28:11;5.10;;;2.53;;
4323;SDS011;2175;51.018;6.994;2023-03-15T14:30:40;6.17;;;2.40;;
4323;SDS011;2175;51.018;6.994;2023-03-15T14:33:20;8.50;;;2.50;;
4323;SDS011;2175;51.018;6.994;2023-03-15T14:36:06;5.10;;;2.10;;
4323;SDS011;2175;51.018;6.994;2023-03-15T14:38:49;5.70;;;3.00;;
4323;SDS011;2175;51.018;6.994;2023-03-15T14:43:48;7.97;;;2.80;;
4323;SDS011;2175;51.018;6.994;2023-03-15T14:46:13;8.90;;;2.20;;
4323;SDS011;2175;51.018;6.994;2023-03-15T14:48:39;7.37;;;2.43;;
4323;SDS011;2175;51.018;6.994;2023-03-15T14:51:05;6.83;;;2.63;;
4323;SDS011;2175;51.018;6.994;2023-03-15T14:53:33;6.73;;;2.27;;
4323;SDS011;2175;51.018;6.994;2023-03-15T14:56:01;5.53;;;2.27;;
4323;SDS011;2175;51.018;6.994;2023-03-15T14:58:28;8.50;;;2.60;;
4323;SDS011;2175;51.018;6.994;2023-03-15T15:00:54;8.80;;;2.40;;
4323;SDS011;2175;51.018;6.994;2023-03-15T15:03:40;6.07;;;2.70;;
4323;SDS011;2175;51.018;6.994;2023-03-15T15:06:12;6.43;;;2.10;;
4323;SDS011;2175;51.018;6.994;2023-03-15T15:08:40;8.00;;;2.97;;
4323;SDS011;2175;51.018;6.994;2023-03-15T15:11:08;5.93;;;2.30;;
4323;SDS011;2175;51.018;6.994;2023-03-15T15:13:35;5.30;;;2.23;;
4323;SDS011;2175;51.018;6.994;2023-03-15T15:16:02;9.60;;;2.80;;
4323;SDS011;2175;51.018;6.994;2023-03-15T15:18:29;7.00;;;2.83;;
4323;SDS011;2175;51.018;6.994;2023-03-15T15:20:57;9.70;;;2.77;;
4323;SDS011;2175;51.018;6.994;2023-03-15T15:23:26;7.37;;;3.07;;
4323;SDS011;2175;51.018;6.994;2023-03-15T15:26:04;6.20;;;2.40;;
4323;SDS011;2175;51.018;6.994;2023-03-15T15:28:42;7.90;;;2.73;;
4323;SDS011;2175;51.018;6.994;2023-03-15T15:31:09;8.70;;;2.50;;
4323;SDS011;2175;51.018;6.994;2023-03-15T15:33:39;7.63;;;2.77;;
4323;SDS011;2175;51.018;6.994;2023-03-15T15:36:09;7.70;;;2.20;;
4323;SDS011;2175;51.018;6.994;2023-03-15T15:38:37;9.97;;;2.53;;
4323;SDS011;2175;51.018;6.994;2023-03-15T15:41:04;6.00;;;2.20;;
4323;SDS011;2175;51.018;6.994;2023-03-15T15:43:35;6.53;;;2.40;;
4323;SDS011;2175;51.018;6.994;2023-03-15T15:46:00;7.80;;;2.90;;
4323;SDS011;2175;51.018;6.994;2023-03-15T15:48:26;3.97;;;1.97;;
4323;SDS011;2175;51.018;6.994;2023-03-15T15:50:51;9.20;;;2.27;;
4323;SDS011;2175;51.018;6.994;2023-03-15T15:53:17;8.23;;;2.20;;
4323;SDS011;2175;51.018;6.994;2023-03-15T15:55:43;5.20;;;2.10;;
4323;SDS011;2175;51.018;6.994;2023-03-15T15:58:10;8.07;;;2.13;;
4323;SDS011;2175;51.018;6.994;2023-03-15T16:00:37;6.97;;;2.23;;
4323;SDS011;2175;51.018;6.994;2023-03-15T16:03:06;4.67;;;2.37;;
4323;SDS011;2175;51.018;6.994;2023-03-15T16:05:38;6.77;;;2.20;;
4323;SDS011;2175;51.018;6.994;2023-03-15T16:08:04;5.80;;;1.90;;
4323;SDS011;2175;51.018;6.994;2023-03-15T16:10:30;9.00;;;2.33;;
4323;SDS011;2175;51.018;6.994;2023-03-15T16:12:59;8.30;;;2.23;;
4323;SDS011;2175;51.018;6.994;2023-03-15T16:15:27;5.30;;;1.77;;